Flight Track Log - Related Links

Times and Time Zones

All times are in EDT time to prevent confusion due to time zone crossing. See the FFT917 flight status page for this flight to view local times or setup timezone preferences in your user account.

Time Position Orientation Groundspeed Altitude Reporting Facility
EDT Latitude Longitude Course Direction KTS MPH feet Rate Location/Type
Wed 07:37:02 AM 40.2790 -74.8120 101° East 20 23  Level FlightAware
Wed 07:37:22 AM 40.2800 -74.8100 57° Northeast 19 22 122 Level FlightAware
Wed 07:37:42 AM 40.2810 -74.8090 37° Northeast 21 24 142 Level FlightAware
Wed 07:37:57 AM 40.2820 -74.8070 57° Northeast 13 15 168 Level FlightAware
Wed 07:39:29 AM 40.2690 -74.8230 223° Southwest 143 165 300 831 Climbing FlightAware
Wed 07:40:07 AM 40.2480 -74.8500 224° Southwest 156 180 1,800 1,569 Climbing FlightAware
Wed 07:40:34 AM 40.2320 -74.8710 225° Southwest 214 246 2,000 808 Climbing FlightAware
Wed 07:40:59 AM 40.2120 -74.8980 226° Southwest 261 300 2,500 2,538 Climbing FlightAware
Wed 07:41:26 AM 40.1910 -74.9260 226° Southwest 253 291 4,200 3,263 Climbing FlightAware
Wed 07:41:56 AM 40.1630 -74.9630 225° Southwest 279 321 5,600 2,870 Climbing FlightAware
Wed 07:42:12 AM 40.1510 -74.9860 236° Southwest 279 321 6,400 1,909 Climbing FlightAware
Wed 07:42:40 AM 40.1350 -75.0270 243° Southwest 281 323 7,000 692 Climbing FlightAware
Wed 07:43:04 AM 40.1210 -75.0640 244° Southwest 283 326 7,000 107 Level FlightAware
Wed 07:43:36 AM 40.1020 -75.1130 243° Southwest 283 326 7,100 571 Climbing FlightAware
Wed 07:43:46 AM 40.0960 -75.1280 242° Southwest 285 328 7,400 2,333 Climbing FlightAware
Wed 07:44:12 AM 40.0810 -75.1680 244° Southwest 295 339 8,500 2,483 Climbing FlightAware
Wed 07:44:44 AM 40.0610 -75.2210 244° Southwest 301 346 9,800 1,184 Climbing FlightAware
Wed 07:45:28 AM 40.0340 -75.2920 244° Southwest 305 351 10,000 167 Climbing FlightAware
Wed 07:45:56 AM 40.0160 -75.3390 243° Southwest 306 352 10,000 -109 Level FlightAware
Wed 07:46:23 AM 40.0000 -75.3770 241° Southwest 306 352 9,900 -226 Descending FlightAware
Wed 07:46:49 AM 39.9750 -75.4070 223° Southwest 305 351 9,800 -95 Descending FlightAware
Wed 07:47:26 AM 39.9330 -75.4610 225° Southwest 305 351 9,800  Level FlightAware
Wed 07:47:50 AM 39.9230 -75.4980 251° West 302 348 9,800  Level FlightAware
Wed 07:48:22 AM 39.9060 -75.5560 249° West 299 344 9,800  Level FlightAware
Wed 07:48:50 AM 39.8930 -75.6020 250° West 298 343 9,800 484 Level FlightAware
Wed 07:49:24 AM 39.8780 -75.6570 250° West 302 348 10,300 1,895 Climbing FlightAware
Wed 07:50:06 AM 39.8560 -75.7360 250° West 315 362 12,200 2,658 Climbing FlightAware
Wed 07:50:43 AM 39.8350 -75.8000 247° West 323 372 13,800 2,707 Climbing FlightAware
Wed 07:51:28 AM 39.7860 -75.8680 227° Southwest 332 382 15,900 2,386 Climbing FlightAware
Wed 07:52:11 AM 39.7410 -75.9280 226° Southwest 346 398 17,300 2,114 Climbing FlightAware
Wed 07:52:56 AM 39.6910 -75.9950 226° Southwest 351 404 19,000 1,765 Climbing FlightAware
Wed 07:53:36 AM 39.6430 -76.0600 226° Southwest 376 433 19,800 1,350 Climbing FlightAware
Wed 07:54:16 AM 39.5920 -76.1270 225° Southwest 396 456 20,800 1,714 Climbing FlightAware
Wed 07:54:53 AM 39.5460 -76.1880 226° Southwest 396 456 22,000 1,714 Climbing FlightAware
Wed 07:55:19 AM 39.5170 -76.2430 236° Southwest 410 472 22,600 1,562 Climbing FlightAware
Wed 07:56:06 AM 39.4800 -76.3440 245° Southwest 420 483 23,900 1,753 Climbing FlightAware
Wed 07:56:48 AM 39.4340 -76.4320 236° Southwest 422 486 25,200 1,674 Climbing FlightAware
Wed 07:57:32 AM 39.3770 -76.5230 231° Southwest 431 496 26,300 1,465 Climbing FlightAware
Wed 07:58:14 AM 39.3230 -76.6080 231° Southwest 439 505 27,300 1,421 Climbing FlightAware
Wed 07:58:48 AM 39.2870 -76.6830 238° Southwest 443 510 28,100 1,481 Climbing FlightAware
Wed 07:59:35 AM 39.2550 -76.8000 251° West 445 512 29,300 1,448 Climbing FlightAware
Wed 08:00:15 AM 39.2280 -76.8990 251° West 450 518 30,200 1,301 Climbing FlightAware
Wed 08:00:58 AM 39.1980 -77.0110 251° West 457 526 31,100 1,214 Climbing FlightAware
Wed 08:01:39 AM 39.1690 -77.1160 250° West 463 533 31,900 1,304 Climbing FlightAware
Wed 08:02:07 AM 39.1430 -77.1850 244° Southwest 461 531 32,600 1,500 Climbing FlightAware
Wed 08:02:51 AM 39.0740 -77.2620 221° Southwest 459 528 33,700 1,624 Climbing FlightAware
Wed 08:03:32 AM 38.9990 -77.3270 214° Southwest 452 520 34,900 1,553 Climbing FlightAware
Wed 08:04:16 AM 38.9230 -77.3920 214° Southwest 450 518 35,900 1,357 Climbing FlightAware
Wed 08:04:56 AM 38.8550 -77.4490 213° Southwest 444 511 36,800 1,214 Climbing FlightAware
Wed 08:05:40 AM 38.7790 -77.5130 213° Southwest 441 507 37,600 786 Climbing FlightAware
Wed 08:06:20 AM 38.7090 -77.5730 214° Southwest 447 514 37,900 286 Climbing FlightAware
Wed 08:07:04 AM 38.6350 -77.6350 213° Southwest 445 512 38,000 71 Climbing FlightAware
Wed 08:07:44 AM 38.5660 -77.6930 213° Southwest 447 514 38,000  Level FlightAware
Wed 08:08:25 AM 38.4970 -77.7510 213° Southwest 446 513 38,000  Level FlightAware
Wed 08:09:08 AM 38.4210 -77.8150 213° Southwest 440 506 38,000  Level FlightAware
Wed 08:09:48 AM 38.3540 -77.8710 213° Southwest 436 502 38,000  Level FlightAware
Wed 08:10:22 AM 38.2950 -77.9200 213° Southwest 434 499 38,000  Level FlightAware
Wed 08:11:00 AM 38.2320 -77.9720 213° Southwest 435 501 38,000  Level FlightAware
Wed 08:12:55 AM 38.0590 -78.1150 213° Southwest 445 512 38,000 37 Level FlightAware
Wed 08:13:42 AM 37.9570 -78.2070 215° Southwest 451 519 38,100 72 Climbing FlightAware
Wed 08:14:18 AM 37.8980 -78.2630 217° Southwest 452 520 38,100  Level FlightAware
Wed 08:17:24 AM 37.6250 -78.5230 217° Southwest 453 521 38,100 -20 Level FlightAware
Wed 08:19:19 AM 37.4300 -78.7050 217° Southwest 448 516 38,000 -38 Descending FlightAware
Wed 08:20:00 AM 37.3480 -78.7830 217° Southwest 449 517 38,000  Level FlightAware
Wed 08:20:41 AM 37.2600 -78.8650 217° Southwest 449 517 38,000 70 Level FlightAware
Wed 08:21:26 AM 37.1830 -78.9370 217° Southwest 448 516 38,100  Climbing FlightAware
Wed 08:22:06 AM 37.1160 -79.0000 217° Southwest 446 513 38,000 -73 Descending FlightAware
Wed 08:22:48 AM 37.0480 -79.0620 216° Southwest 445 512 38,000  Level FlightAware
Wed 08:23:32 AM 36.9740 -79.1300 216° Southwest 446 513 38,000  Level FlightAware
Wed 08:24:12 AM 36.9090 -79.1910 217° Southwest 446 513 38,000  Level FlightAware
Wed 08:24:56 AM 36.8350 -79.2590 216° Southwest 448 516 38,000 71 Level FlightAware
Wed 08:25:36 AM 36.7680 -79.3210 217° Southwest 448 516 38,100 79 Climbing FlightAware
Wed 08:26:12 AM 36.7090 -79.3740 216° Southwest 447 514 38,100 -75 Level FlightAware
Wed 08:26:56 AM 36.6350 -79.4420 216° Southwest 447 514 38,000 -71 Descending FlightAware
Wed 08:27:36 AM 36.5690 -79.5030 217° Southwest 447 514 38,000  Level FlightAware
Wed 08:28:16 AM 36.5080 -79.5590 216° Southwest 447 514 38,000  Level FlightAware
Wed 08:28:52 AM 36.4440 -79.6170 216° Southwest 447 514 38,000  Level FlightAware
Wed 08:29:36 AM 36.3670 -79.6870 216° Southwest 448 516 38,000  Level FlightAware
Wed 08:30:10 AM 36.3110 -79.7370 216° Southwest 449 517 38,000  Level FlightAware
Wed 08:31:01 AM 36.2270 -79.8130 216° Southwest 444 511 38,000 66 Level FlightAware
Wed 08:31:41 AM 36.1600 -79.8730 216° Southwest 445 512 38,100  Climbing FlightAware
Wed 08:32:21 AM 36.0920 -79.9340 216° Southwest 444 511 38,000  Descending FlightAware
Wed 08:33:41 AM 35.9460 -80.0260 207° Southwest 432 497 38,100  Climbing FlightAware
Wed 08:34:21 AM 35.8770 -80.0610 202° Southwest 438 504 38,000 -75 Descending FlightAware
Wed 08:35:01 AM 35.7960 -80.1020 202° Southwest 437 503 38,000  Level FlightAware
Wed 08:35:36 AM 35.7340 -80.1340 203° Southwest 437 503 38,000  Level FlightAware
Wed 08:36:33 AM 35.6220 -80.1890 202° Southwest 437 503 38,000  Level FlightAware
Wed 08:37:13 AM 35.5460 -80.2270 202° Southwest 442 509 38,000  Level FlightAware
Wed 08:37:53 AM 35.4720 -80.2650 203° Southwest 442 509 38,000  Level FlightAware
Wed 08:38:33 AM 35.3940 -80.3040 202° Southwest 442 509 38,000  Level FlightAware
Wed 08:39:13 AM 35.3190 -80.3410 202° Southwest 442 509 38,000  Level FlightAware
Wed 08:39:59 AM 35.2310 -80.3840 202° Southwest 443 510 38,000  Level FlightAware
Wed 08:40:41 AM 35.1520 -80.4240 202° Southwest 445 512 38,000  Level FlightAware
Wed 08:41:21 AM 35.0760 -80.4610 202° Southwest 445 512 38,000 70 Level FlightAware
Wed 08:42:07 AM 34.9860 -80.5060 202° Southwest 445 512 38,100 70 Climbing FlightAware
Wed 08:42:47 AM 34.9100 -80.5430 202° Southwest 445 512 38,100  Level FlightAware
Wed 08:43:27 AM 34.8330 -80.5810 202° Southwest 445 512 38,100 -71 Level FlightAware
Wed 08:44:11 AM 34.7500 -80.6220 202° Southwest 443 510 38,000 -71 Descending FlightAware
Wed 08:44:52 AM 34.6720 -80.6600 202° Southwest 444 511 38,000  Level FlightAware
Wed 08:45:36 AM 34.5870 -80.7010 202° Southwest 445 512 38,000  Level FlightAware
Wed 08:46:12 AM 34.5180 -80.7290 198° South 439 505 38,000  Level FlightAware
Wed 08:47:00 AM 34.4210 -80.7500 190° South 440 506 38,000  Level FlightAware
Wed 08:47:40 AM 34.3430 -80.7660 190° South 445 512 38,000  Level FlightAware
Wed 08:48:20 AM 34.2590 -80.7830 189° South 449 517 38,000 70 Level FlightAware
Wed 08:49:06 AM 34.1717 -80.7917 189° South 438 504 38,100 57 Climbing Jacksonville Center
Wed 08:50:06 AM 34.0444 -80.8047 185° South 448 516 38,100  Level Jacksonville Center
Wed 08:51:06 AM 33.9236 -80.8203 186° South 448 516 38,100 -50 Level Jacksonville Center
Wed 08:52:06 AM 33.8028 -80.8331 185° South 448 516 38,000 -50 Descending Jacksonville Center
Wed 08:53:06 AM 33.6819 -80.8433 184° South 437 503 38,000  Level Jacksonville Center
Wed 08:54:06 AM 33.5633 -80.8561 185° South 437 503 38,000  Level Jacksonville Center
Wed 08:55:06 AM 33.4444 -80.8689 185° South 437 503 38,000  Level Jacksonville Center
Wed 08:56:06 AM 33.3217 -80.8842 186° South 437 503 38,000  Level Jacksonville Center
Wed 08:57:06 AM 33.2050 -80.8942 184° South 442 509 38,000  Level Jacksonville Center
Wed 08:58:06 AM 33.0778 -80.9069 185° South 447 514 38,000  Level Jacksonville Center
Wed 09:03:23 AM 32.4350 -80.9730 185° South 444 511 38,000 17 Level FlightAware
Wed 09:04:08 AM 32.3450 -80.9820 185° South 448 516 38,100 74 Climbing FlightAware
Wed 09:04:44 AM 32.2610 -80.9910 185° South 448 516 38,100  Level FlightAware
Wed 09:05:33 AM 32.1710 -81.0000 185° South 448 516 38,100 -67 Level FlightAware
Wed 09:06:13 AM 32.0780 -81.0090 185° South 446 513 38,000 -69 Descending FlightAware
Wed 09:07:00 AM 31.9880 -81.0190 185° South 444 511 38,000  Level FlightAware
Wed 09:07:45 AM 31.8910 -81.0280 185° South 441 507 38,000  Level FlightAware
Wed 09:08:23 AM 31.8250 -81.0350 185° South 439 505 38,000  Level FlightAware
Wed 09:09:10 AM 31.7260 -81.0450 185° South 435 501 38,000  Level FlightAware
Wed 09:10:07 AM 31.6210 -81.0550 185° South 430 495 38,000  Level FlightAware
Wed 09:10:47 AM 31.5370 -81.0640 185° South 426 490 38,000  Level FlightAware
Wed 09:12:10 AM 31.3780 -81.0780 184° South 426 490 38,000  Level FlightAware
Wed 09:12:48 AM 31.3140 -81.0830 184° South 426 490 38,000  Level FlightAware
Wed 09:13:36 AM 31.2340 -81.0890 184° South 426 490 38,000  Level FlightAware
Wed 09:14:13 AM 31.1720 -81.0940 184° South 426 490 38,000  Level FlightAware
Wed 09:15:01 AM 31.0920 -81.1010 184° South 426 490 38,000  Level FlightAware
Wed 09:15:35 AM 31.0350 -81.1060 184° South 426 490 38,000  Level FlightAware
Wed 09:16:23 AM 30.9550 -81.1120 184° South 426 490 38,000  Level FlightAware
Wed 09:16:59 AM 30.8950 -81.1170 184° South 426 490 38,000  Level FlightAware
Wed 09:17:47 AM 30.8140 -81.1240 184° South 426 490 38,000  Level FlightAware
Wed 09:18:23 AM 30.7540 -81.1290 184° South 426 490 38,000 -2,424 Level FlightAware
Wed 09:19:26 AM 30.4850 -81.1480 183° South 434 499 34,000 -2,400 Descending FlightAware
Wed 09:20:03 AM 30.4250 -81.1460 178° South 428 493 34,000  Level FlightAware
Wed 09:20:43 AM 30.3350 -81.1430 178° South 430 495 34,000  Level FlightAware
Wed 09:21:30 AM 30.2410 -81.1400 178° South 433 498 34,000  Level FlightAware
Wed 09:22:06 AM 30.1670 -81.1380 179° South 434 499 34,000 -77 Level FlightAware
Wed 09:22:48 AM 30.0890 -81.1360 179° South 436 502 33,900 -2,067 Descending FlightAware
Wed 09:23:36 AM 29.9840 -81.1330 179° South 443 510 30,900 -2,093 Descending FlightAware
Wed 09:24:14 AM 29.9180 -81.1300 178° South 443 510 30,900 -1,774 Level FlightAware
Wed 09:25:31 AM 29.9150 -81.1310 196° South 437 503 27,500 -2,797 Descending FlightAware
Wed 09:26:27 AM 29.9420 -81.1320 358° North 429 494 24,700 -1,826 Descending FlightAware
Wed 09:27:03 AM 29.8810 -81.1310 179° South 429 494 24,700  Level FlightAware
Wed 09:27:51 AM 29.8000 -81.1290 179° South 429 494 24,700  Level FlightAware
Wed 09:28:27 AM 29.7400 -81.1280 179° South 429 494 24,700  Level FlightAware
Wed 09:29:03 AM 29.6790 -81.1270 179° South 429 494 24,700 -4,970 Level FlightAware
Wed 09:30:06 AM 29.2542 -81.1100 179° South 393 452 16,500 -4,927 Descending Jacksonville Center
Wed 09:31:06 AM 29.1497 -81.1022 176° South 387 445 14,600 -1,900 Descending Jacksonville Center
Wed 09:32:06 AM 29.0472 -81.0944 176° South 382 440 12,700 -985 Descending Jacksonville Center
Wed 09:37:18 AM 28.5830 -81.1760 176° South 8,700 -825 Descending FlightAware
Wed 09:37:48 AM 28.5420 -81.1860 192° South 284 327 8,000 -1,200 Descending FlightAware
Wed 09:38:23 AM 28.5000 -81.1870 181° South 247 284 7,400 -1,220 Descending FlightAware
Wed 09:38:47 AM 28.4750 -81.1870 180° South 239 275 6,800 -1,778 Descending FlightAware
Wed 09:39:17 AM 28.4410 -81.1870 180° South 234 269 5,800 -1,759 Descending FlightAware
Wed 09:39:45 AM 28.4100 -81.1870 180° South 237 273 5,100 -711 Descending FlightAware
Wed 09:40:33 AM 28.3667 -81.1833 180° South 217 250 4,900 -722 Descending Orlando TRACON
Wed 09:41:33 AM 28.3000 -81.1833 180° South 206 237 3,800 -952 Descending Orlando TRACON
Wed 09:42:39 AM 28.2833 -81.2500 254° West 221 254 2,900 -898 Descending Orlando TRACON
Wed 09:43:40 AM 28.3333 -81.2833 330° Northwest 192 221 1,900 -991 Descending Orlando TRACON
Wed 09:44:34 AM 28.3833 -81.2833 360° North 171 197 1,000 -1,000 Descending Orlando TRACON
Wed 09:46:00 AM 28.4167 -81.3000 342° North  Level FlightAware

Login

Don't have an account? Register now (free) for customized features, flight alerts, and more!